Time;durP1;ratioP1;P1;durP2;ratioP2;P2;SDS_P1;SDS_P2;PMS_P1;PMS_P2;Temp;Humidity;BMP_temperature;BMP_pressure;BME280_temperature;BME280_humidity;BME280_pressure;Samples;Min_cycle;Max_cycle;Signal;HPM_P1;HPM_P2
2020/12/27 00:00:23;;;;;;;3.25;1.65;;;1.00;99.90;;;;;;5078410;28;20075;-64
2020/12/27 00:02:48;;;;;;;3.72;2.10;;;1.00;99.90;;;;;;5078387;28;20548;-64
2020/12/27 00:05:15;;;;;;;4.22;2.25;;;1.00;99.90;;;;;;5079837;28;20410;-64
2020/12/27 00:07:41;;;;;;;5.20;1.70;;;0.90;99.90;;;;;;5080602;28;20040;-64
2020/12/27 00:10:06;;;;;;;3.58;1.95;;;1.00;99.90;;;;;;5079754;28;20094;-62
2020/12/27 00:12:32;;;;;;;4.10;2.10;;;0.90;99.90;;;;;;5078917;28;20400;-63
2020/12/27 00:14:58;;;;;;;3.92;1.67;;;0.90;99.90;;;;;;5070969;28;20506;-64
2020/12/27 00:17:24;;;;;;;5.82;1.70;;;0.90;99.90;;;;;;5066112;28;20037;-64
2020/12/27 00:19:49;;;;;;;3.72;1.77;;;1.00;99.90;;;;;;5066029;28;20052;-63
2020/12/27 00:22:16;;;;;;;3.88;1.90;;;1.00;99.90;;;;;;5064844;28;20055;-64
2020/12/27 00:24:41;;;;;;;3.55;1.60;;;1.00;99.90;;;;;;5065924;28;20097;-63
2020/12/27 00:27:07;;;;;;;4.20;1.83;;;1.00;99.90;;;;;;5066835;28;20029;-64
2020/12/27 00:29:33;;;;;;;4.60;1.75;;;1.00;99.90;;;;;;5065775;28;20040;-64
2020/12/27 00:31:58;;;;;;;3.78;1.52;;;1.00;99.90;;;;;;5065577;28;20063;-64
2020/12/27 00:34:24;;;;;;;5.00;1.98;;;1.10;99.90;;;;;;5064778;28;20047;-63
2020/12/27 00:36:56;;;;;;;2.97;1.42;;;1.10;99.90;;;;;;5069364;28;20127;-64
2020/12/27 00:39:21;;;;;;;3.92;1.98;;;1.00;99.90;;;;;;5067591;28;20048;-63
2020/12/27 00:41:48;;;;;;;5.55;1.80;;;1.10;99.90;;;;;;5067003;28;20039;-64
2020/12/27 00:44:14;;;;;;;3.63;1.60;;;1.00;99.90;;;;;;5066713;28;20052;-64
2020/12/27 00:46:40;;;;;;;4.05;1.52;;;1.00;99.90;;;;;;5066584;28;20083;-64
2020/12/27 00:49:05;;;;;;;2.88;1.60;;;1.00;99.90;;;;;;5053615;28;20408;-64
2020/12/27 00:51:31;;;;;;;2.85;1.50;;;1.10;99.90;;;;;;5047486;28;20037;-64
2020/12/27 00:53:56;;;;;;;2.85;1.50;;;1.00;99.90;;;;;;5057361;28;20072;-64
2020/12/27 00:56:22;;;;;;;8.80;2.33;;;1.00;99.90;;;;;;5066685;28;20087;-64
2020/12/27 00:58:47;;;;;;;2.10;1.63;;;1.00;99.90;;;;;;5066852;28;20040;-64
2020/12/27 01:01:14;;;;;;;3.75;1.67;;;0.90;99.90;;;;;;5067613;28;20033;-64
2020/12/27 01:03:40;;;;;;;7.97;1.60;;;1.00;99.90;;;;;;5070146;28;20045;-64
2020/12/27 01:06:06;;;;;;;4.00;1.67;;;1.00;99.90;;;;;;5052477;28;20083;-64
2020/12/27 01:08:32;;;;;;;2.60;1.50;;;1.00;99.90;;;;;;5065729;28;20043;-64
2020/12/27 01:11:02;;;;;;;4.63;1.63;;;1.00;99.90;;;;;;5066662;28;20032;-64
2020/12/27 01:13:28;;;;;;;5.00;1.50;;;1.00;99.90;;;;;;5051166;28;20045;-64
2020/12/27 01:15:55;;;;;;;4.10;1.60;;;1.00;99.90;;;;;;5046520;28;20492;-64
2020/12/27 01:18:21;;;;;;;2.78;1.63;;;0.90;99.90;;;;;;5046169;28;20428;-63
2020/12/27 01:20:48;;;;;;;4.55;1.92;;;0.90;99.90;;;;;;5047018;28;20079;-63
2020/12/27 01:23:13;;;;;;;3.63;1.58;;;0.90;99.90;;;;;;5056441;28;20098;-64
2020/12/27 01:25:39;;;;;;;5.72;1.67;;;0.90;99.90;;;;;;5066079;28;20032;-64
2020/12/27 01:28:05;;;;;;;3.00;1.90;;;0.90;99.90;;;;;;5059223;28;20064;-63
2020/12/27 01:30:30;;;;;;;3.70;1.65;;;0.90;99.90;;;;;;5045711;28;20067;-64
2020/12/27 01:32:56;;;;;;;5.60;2.00;;;0.90;99.90;;;;;;5057751;28;20052;-65
2020/12/27 01:35:21;;;;;;;4.55;2.05;;;0.90;99.90;;;;;;5066668;28;20097;-64
2020/12/27 01:37:47;;;;;;;3.85;1.60;;;0.90;99.90;;;;;;5076270;28;20694;-64
2020/12/27 01:40:13;;;;;;;5.53;1.73;;;0.90;99.90;;;;;;5070503;28;20052;-64
2020/12/27 01:42:39;;;;;;;3.47;1.75;;;0.90;99.90;;;;;;5063065;28;20047;-63
2020/12/27 01:45:05;;;;;;;3.95;1.80;;;1.00;99.90;;;;;;5066078;28;20071;-64
2020/12/27 01:47:33;;;;;;;4.68;1.80;;;1.00;99.90;;;;;;5065261;28;20045;-64
2020/12/27 01:49:59;;;;;;;2.65;1.60;;;1.00;99.90;;;;;;5062871;28;20528;-64
2020/12/27 01:52:25;;;;;;;6.90;1.88;;;1.00;99.90;;;;;;5065842;28;20032;-64
2020/12/27 01:54:51;;;;;;;3.38;1.73;;;0.90;99.90;;;;;;5066363;28;20138;-64
2020/12/27 01:57:21;;;;;;;5.45;2.05;;;0.90;99.90;;;;;;5065631;28;20130;-64
2020/12/27 01:59:50;;;;;;;5.05;2.00;;;0.80;99.90;;;;;;5064688;28;20205;-63
2020/12/27 02:02:17;;;;;;;4.72;2.05;;;0.80;99.90;;;;;;5062046;28;20035;-64
2020/12/27 02:04:43;;;;;;;3.58;1.98;;;0.80;99.90;;;;;;5059442;28;20044;-65
2020/12/27 02:07:09;;;;;;;5.43;2.50;;;0.80;99.90;;;;;;5064970;28;20032;-64
2020/12/27 02:09:39;;;;;;;2.50;2.00;;;0.80;99.90;;;;;;5065711;28;20073;-65
2020/12/27 02:12:10;;;;;;;3.45;2.28;;;0.80;99.90;;;;;;5062138;28;20107;-65
2020/12/27 02:14:37;;;;;;;3.70;2.08;;;0.70;99.90;;;;;;5046177;28;20078;-64
2020/12/27 02:17:04;;;;;;;4.82;2.88;;;0.80;99.90;;;;;;5044686;28;20041;-64
2020/12/27 02:19:29;;;;;;;6.88;2.40;;;0.70;99.90;;;;;;5064025;28;20602;-63
2020/12/27 02:21:55;;;;;;;5.45;2.63;;;0.80;99.90;;;;;;5045358;28;20041;-63
2020/12/27 02:24:21;;;;;;;6.57;2.33;;;0.80;99.90;;;;;;5057735;28;20113;-64
2020/12/27 02:27:00;;;;;;;8.27;2.70;;;0.80;99.90;;;;;;5062935;28;20442;-63
2020/12/27 02:29:29;;;;;;;4.63;2.25;;;0.80;99.90;;;;;;5063505;28;20115;-64
2020/12/27 02:31:56;;;;;;;3.45;2.47;;;0.70;99.90;;;;;;5047373;28;20040;-64
2020/12/27 02:34:23;;;;;;;3.88;2.33;;;0.70;99.90;;;;;;5064033;28;20126;-63
2020/12/27 02:36:49;;;;;;;7.22;2.35;;;0.70;99.90;;;;;;5045368;28;20581;-63
2020/12/27 02:39:17;;;;;;;5.28;2.60;;;0.70;99.90;;;;;;5058060;28;20093;-63
2020/12/27 02:41:43;;;;;;;4.93;2.72;;;0.70;99.90;;;;;;5057152;28;20040;-64
2020/12/27 02:44:09;;;;;;;4.45;2.40;;;0.70;99.90;;;;;;5048899;28;20041;-64
2020/12/27 02:46:35;;;;;;;4.72;2.60;;;0.60;99.90;;;;;;5053647;28;20559;-63
2020/12/27 02:49:01;;;;;;;3.72;2.50;;;0.60;99.90;;;;;;5064029;28;20063;-64
2020/12/27 02:51:27;;;;;;;6.00;2.17;;;0.70;99.90;;;;;;5064248;28;20052;-63
2020/12/27 02:53:54;;;;;;;7.13;3.15;;;0.70;99.90;;;;;;5056058;28;20717;-63
2020/12/27 02:56:22;;;;;;;13.48;3.47;;;0.60;99.90;;;;;;5061671;28;20107;-64
2020/12/27 02:58:49;;;;;;;3.60;2.30;;;0.60;99.90;;;;;;5045632;28;20045;-64
2020/12/27 03:01:15;;;;;;;6.75;2.30;;;0.60;99.90;;;;;;5057284;28;20037;-64
2020/12/27 03:03:41;;;;;;;4.28;2.20;;;0.60;99.90;;;;;;5063920;28;20047;-64
2020/12/27 03:06:07;;;;;;;4.10;2.30;;;0.60;99.90;;;;;;5063899;28;20040;-64
2020/12/27 03:08:32;;;;;;;5.35;2.30;;;0.70;99.90;;;;;;5055452;28;20045;-64
2020/12/27 03:10:58;;;;;;;5.10;2.58;;;0.70;99.90;;;;;;5051179;28;20051;-63
2020/12/27 03:13:24;;;;;;;3.03;1.73;;;0.70;99.90;;;;;;5053732;28;20412;-64
2020/12/27 03:15:51;;;;;;;3.58;2.15;;;0.70;99.90;;;;;;5060625;28;20040;-64
2020/12/27 03:18:20;;;;;;;3.42;2.15;;;0.70;99.90;;;;;;5063682;28;20042;-62
2020/12/27 03:20:45;;;;;;;4.20;1.80;;;0.70;99.90;;;;;;5064188;28;20044;-64
2020/12/27 03:23:11;;;;;;;3.83;1.83;;;0.70;99.90;;;;;;5060073;28;20496;-64
2020/12/27 03:25:37;;;;;;;4.63;2.08;;;0.70;99.90;;;;;;5044586;28;20041;-63
2020/12/27 03:28:03;;;;;;;2.80;1.88;;;0.70;99.90;;;;;;5046625;28;20060;-64
2020/12/27 03:30:28;;;;;;;7.03;2.22;;;0.80;99.90;;;;;;5064165;28;20044;-63
2020/12/27 03:32:54;;;;;;;3.65;1.73;;;0.70;99.90;;;;;;5061815;28;20032;-65
2020/12/27 03:35:19;;;;;;;4.07;2.25;;;0.70;99.90;;;;;;5044166;28;20150;-63
2020/12/27 03:37:45;;;;;;;4.90;2.28;;;0.70;99.90;;;;;;5044118;28;20044;-64
2020/12/27 03:40:11;;;;;;;3.17;1.95;;;0.70;99.90;;;;;;5046367;28;20036;-64
2020/12/27 03:42:36;;;;;;;2.33;1.73;;;0.70;99.90;;;;;;5063197;28;20056;-63
2020/12/27 03:45:03;;;;;;;4.45;1.60;;;0.70;99.90;;;;;;5044578;28;20045;-64
2020/12/27 03:47:29;;;;;;;2.38;1.60;;;0.80;99.90;;;;;;5049946;28;20044;-64
2020/12/27 03:49:55;;;;;;;2.65;1.65;;;0.70;99.90;;;;;;5062472;28;20036;-64
2020/12/27 03:52:21;;;;;;;2.08;1.70;;;0.80;99.90;;;;;;5065396;28;20048;-63
2020/12/27 03:54:46;;;;;;;2.70;1.70;;;0.80;99.90;;;;;;5067743;28;20439;-63
2020/12/27 03:57:12;;;;;;;2.58;1.67;;;0.90;99.90;;;;;;5055872;28;20033;-63
2020/12/27 03:59:37;;;;;;;5.95;1.80;;;0.90;99.90;;;;;;5047311;28;20037;-64
2020/12/27 04:02:03;;;;;;;2.53;1.83;;;0.90;99.90;;;;;;5054568;28;20119;-64
2020/12/27 04:04:28;;;;;;;2.22;1.70;;;0.80;99.90;;;;;;5048147;28;20052;-64
2020/12/27 04:06:54;;;;;;;3.10;1.92;;;0.80;99.90;;;;;;5046934;28;20704;-63
2020/12/27 04:09:20;;;;;;;4.07;1.80;;;0.80;99.90;;;;;;5057779;28;20033;-64
2020/12/27 04:11:45;;;;;;;2.38;1.55;;;0.80;99.90;;;;;;5064850;28;20555;-63
2020/12/27 04:14:11;;;;;;;3.58;1.60;;;0.80;99.90;;;;;;5056252;28;20778;-65
2020/12/27 04:16:37;;;;;;;4.60;2.03;;;0.80;99.90;;;;;;5052785;28;20054;-64
2020/12/27 04:19:03;;;;;;;3.75;1.90;;;0.70;99.90;;;;;;5066619;28;20098;-63
2020/12/27 04:21:29;;;;;;;3.17;1.70;;;0.70;99.90;;;;;;5066888;28;20082;-63
2020/12/27 04:23:54;;;;;;;2.05;1.73;;;0.70;99.90;;;;;;5052007;28;20060;-63
2020/12/27 04:26:21;;;;;;;2.60;1.85;;;0.70;99.90;;;;;;5065622;28;20047;-64
2020/12/27 04:28:47;;;;;;;4.40;1.58;;;0.70;99.90;;;;;;5066827;28;20583;-63
2020/12/27 04:31:14;;;;;;;3.90;2.05;;;0.70;99.90;;;;;;5066425;28;20048;-63
2020/12/27 04:33:40;;;;;;;3.78;1.73;;;0.70;99.90;;;;;;5066476;28;20524;-63
2020/12/27 04:36:06;;;;;;;3.75;1.88;;;0.70;99.90;;;;;;5066178;28;20032;-64
2020/12/27 04:38:31;;;;;;;5.05;1.75;;;0.70;99.90;;;;;;5061641;28;20040;-63
2020/12/27 04:40:58;;;;;;;3.88;1.70;;;0.70;99.90;;;;;;5066068;28;20522;-64
2020/12/27 04:43:24;;;;;;;3.30;1.77;;;0.70;99.90;;;;;;5057532;28;20055;-64
2020/12/27 04:45:58;;;;;;;5.10;1.35;;;0.80;99.90;;;;;;5065290;28;20033;-64
2020/12/27 04:48:24;;;;;;;2.83;1.65;;;0.80;99.90;;;;;;5047336;28;20045;-64
2020/12/27 04:50:52;;;;;;;1.83;1.50;;;0.80;99.90;;;;;;5045871;28;20128;-64
2020/12/27 04:53:19;;;;;;;4.55;2.15;;;0.80;99.90;;;;;;5054725;28;20091;-64
2020/12/27 04:55:44;;;;;;;2.35;1.85;;;0.80;99.90;;;;;;5046843;28;20124;-63
2020/12/27 04:58:17;;;;;;;3.05;1.80;;;0.80;99.90;;;;;;5046382;28;20124;-63
2020/12/27 05:00:42;;;;;;;2.85;2.00;;;0.80;99.90;;;;;;5045890;28;20128;-64
2020/12/27 05:03:08;;;;;;;6.75;2.83;;;0.80;99.90;;;;;;5046684;28;20128;-63
2020/12/27 05:05:33;;;;;;;2.25;1.70;;;0.80;99.90;;;;;;5047254;28;20074;-64
2020/12/27 05:07:59;;;;;;;2.72;1.88;;;0.80;99.90;;;;;;5065622;28;20032;-64
2020/12/27 05:10:24;;;;;;;4.60;1.85;;;0.80;99.90;;;;;;5063632;28;20055;-63
2020/12/27 05:12:52;;;;;;;4.47;2.17;;;0.80;99.90;;;;;;5060429;28;20040;-64
2020/12/27 05:15:17;;;;;;;3.47;2.08;;;0.80;99.90;;;;;;5055880;28;20043;-64
2020/12/27 05:17:43;;;;;;;3.83;2.13;;;0.80;99.90;;;;;;5058478;28;20033;-64
2020/12/27 05:20:12;;;;;;;3.08;1.73;;;0.80;99.90;;;;;;5056549;28;20040;-63
2020/12/27 05:22:39;;;;;;;5.65;1.77;;;0.90;99.90;;;;;;5054565;28;20495;-64
2020/12/27 05:25:05;;;;;;;2.92;1.73;;;0.90;99.90;;;;;;5054509;28;20076;-64
2020/12/27 05:27:32;;;;;;;4.22;1.80;;;0.80;99.90;;;;;;5055276;28;20433;-64
2020/12/27 05:30:00;;;;;;;2.70;1.70;;;0.80;99.90;;;;;;5057046;28;20821;-63
2020/12/27 05:32:29;;;;;;;2.65;2.00;;;0.90;99.90;;;;;;5055635;28;20040;-64
2020/12/27 05:34:55;;;;;;;3.13;1.70;;;0.90;99.90;;;;;;5054048;28;20043;-63
2020/12/27 05:37:22;;;;;;;4.00;2.17;;;0.90;99.90;;;;;;5062740;28;20028;-64
2020/12/27 05:39:48;;;;;;;6.57;1.80;;;0.90;99.90;;;;;;5064069;28;20119;-64
2020/12/27 05:42:13;;;;;;;2.45;1.75;;;0.90;99.90;;;;;;5057338;28;20189;-63
2020/12/27 05:44:39;;;;;;;3.10;1.85;;;0.80;99.90;;;;;;5056094;28;20045;-64
2020/12/27 05:47:04;;;;;;;9.05;2.10;;;0.80;99.90;;;;;;5057236;28;20044;-63
2020/12/27 05:49:30;;;;;;;3.60;1.70;;;0.70;99.90;;;;;;5048644;28;20036;-63
2020/12/27 05:51:57;;;;;;;4.00;1.80;;;0.70;99.90;;;;;;5056565;28;20036;-63
2020/12/27 05:54:33;;;;;;;4.05;2.08;;;0.70;99.90;;;;;;5055569;28;20141;-64
2020/12/27 05:57:00;;;;;;;3.03;1.88;;;0.70;99.90;;;;;;5052974;28;20037;-64
2020/12/27 05:59:32;;;;;;;8.52;2.00;;;0.60;99.90;;;;;;5053143;28;20067;-65
2020/12/27 06:01:58;;;;;;;4.00;1.67;;;0.60;99.90;;;;;;5057904;28;20047;-65
2020/12/27 06:04:55;;;;;;;5.72;2.00;;;0.60;99.90;;;;;;5061996;28;20098;-65
2020/12/27 06:07:32;;;;;;;3.90;2.08;;;0.60;99.90;;;;;;5057426;28;20052;-63
2020/12/27 06:10:00;;;;;;;4.80;2.30;;;0.60;99.90;;;;;;5054487;28;20078;-64
2020/12/27 06:12:44;;;;;;;2.25;1.70;;;0.60;99.90;;;;;;5059679;28;20709;-64
2020/12/27 06:15:25;;;;;;;3.17;1.98;;;0.60;99.90;;;;;;5053731;28;20045;-64
2020/12/27 06:17:50;;;;;;;4.72;2.05;;;0.60;99.90;;;;;;5052832;28;20045;-65
2020/12/27 06:20:20;;;;;;;5.82;2.20;;;0.60;99.90;;;;;;5050343;28;20040;-64
2020/12/27 06:22:51;;;;;;;4.72;2.20;;;0.60;99.90;;;;;;5054318;28;20048;-64
2020/12/27 06:25:18;;;;;;;4.57;1.83;;;0.60;99.90;;;;;;5058721;28;20111;-64
2020/12/27 06:27:45;;;;;;;3.92;2.20;;;0.60;99.90;;;;;;5048357;28;20037;-64
2020/12/27 06:30:19;;;;;;;7.32;2.17;;;0.60;99.90;;;;;;5055144;28;20036;-64
2020/12/27 06:32:57;;;;;;;3.20;2.20;;;0.60;99.90;;;;;;5055614;28;20127;-63
2020/12/27 06:35:37;;;;;;;2.80;1.73;;;0.60;99.90;;;;;;5050688;28;20127;-63
2020/12/27 06:38:23;;;;;;;3.38;2.33;;;0.60;99.90;;;;;;5053802;28;20124;-64
2020/12/27 06:40:57;;;;;;;3.40;2.00;;;0.60;99.90;;;;;;5060096;28;20067;-64
2020/12/27 06:43:24;;;;;;;5.32;2.67;;;0.50;99.90;;;;;;5062659;28;20127;-63
2020/12/27 06:45:51;;;;;;;4.38;2.42;;;0.50;99.90;;;;;;5054869;28;20028;-63
2020/12/27 06:48:37;;;;;;;4.63;2.75;;;0.40;99.90;;;;;;5053311;28;20713;-64
2020/12/27 06:51:03;;;;;;;7.43;3.03;;;0.40;99.90;;;;;;5052496;28;20037;-64
2020/12/27 06:53:47;;;;;;;7.13;2.97;;;0.30;99.90;;;;;;5053310;28;20139;-64
2020/12/27 06:56:14;;;;;;;9.05;3.00;;;0.30;99.90;;;;;;5060592;28;20066;-63
2020/12/27 06:58:41;;;;;;;4.72;3.05;;;0.30;99.90;;;;;;5055895;28;20066;-64
2020/12/27 07:01:15;;;;;;;11.25;3.45;;;0.20;99.90;;;;;;5056019;28;20043;-64
2020/12/27 07:03:43;;;;;;;4.72;2.75;;;0.10;99.90;;;;;;5048307;28;20052;-62
2020/12/27 07:06:38;;;;;;;5.90;2.58;;;0.00;99.90;;;;;;5055607;28;20123;-63
2020/12/27 07:09:04;;;;;;;4.93;2.50;;;0.10;99.90;;;;;;5050157;28;20083;-64
2020/12/27 07:11:32;;;;;;;6.55;2.58;;;0.20;99.90;;;;;;5057241;28;20332;-64
2020/12/27 07:13:59;;;;;;;6.13;2.35;;;0.20;99.90;;;;;;5058656;28;20048;-65
2020/12/27 07:16:55;;;;;;;6.53;2.83;;;0.20;99.90;;;;;;5052067;28;20045;-63
2020/12/27 07:19:24;;;;;;;3.22;2.10;;;0.20;99.90;;;;;;5052274;28;20040;-64
2020/12/27 07:21:49;;;;;;;4.05;2.78;;;0.20;99.90;;;;;;5054732;28;20040;-64
2020/12/27 07:24:21;;;;;;;6.05;2.42;;;0.20;99.90;;;;;;5058653;28;20045;-63
2020/12/27 07:26:47;;;;;;;4.47;2.45;;;0.20;99.90;;;;;;5064693;28;20083;-64
2020/12/27 07:29:19;;;;;;;3.58;2.42;;;0.20;99.90;;;;;;5059520;28;20036;-64
2020/12/27 07:31:45;;;;;;;6.20;2.83;;;0.10;99.90;;;;;;5057649;28;20041;-63
2020/12/27 07:34:13;;;;;;;3.60;2.33;;;0.20;99.90;;;;;;5057165;28;20041;-64
2020/12/27 07:36:39;;;;;;;3.95;2.45;;;0.20;99.90;;;;;;5057325;28;20120;-65
2020/12/27 07:39:10;;;;;;;4.22;2.92;;;0.20;99.90;;;;;;5057625;28;20132;-63
2020/12/27 07:41:40;;;;;;;2.67;1.83;;;0.10;99.90;;;;;;5063621;28;20400;-64
2020/12/27 07:44:16;;;;;;;4.85;2.83;;;0.10;99.90;;;;;;5065453;28;20052;-64
2020/12/27 07:46:43;;;;;;;3.67;2.22;;;0.00;99.90;;;;;;5055926;28;20056;-65
2020/12/27 07:49:10;;;;;;;5.00;2.85;;;0.10;99.90;;;;;;5057044;28;20519;-67
2020/12/27 07:51:36;;;;;;;3.20;2.40;;;0.10;99.90;;;;;;5059002;28;20062;-66
2020/12/27 07:54:03;;;;;;;5.53;2.55;;;0.10;99.90;;;;;;5052166;28;20742;-67
2020/12/27 07:56:29;;;;;;;7.63;2.38;;;0.00;99.90;;;;;;5057653;28;20041;-65
2020/12/27 07:58:58;;;;;;;9.45;3.53;;;0.10;99.90;;;;;;5058602;28;20423;-66
2020/12/27 08:01:34;;;;;;;6.43;3.22;;;0.10;99.90;;;;;;5063956;28;20048;-66
2020/12/27 08:04:04;;;;;;;4.70;3.15;;;0.10;99.90;;;;;;5058598;28;20048;-66
2020/12/27 08:06:31;;;;;;;5.13;3.33;;;0.10;99.90;;;;;;5057050;28;20036;-63
2020/12/27 08:09:12;;;;;;;6.10;3.75;;;0.10;99.90;;;;;;5052181;28;20155;-64
2020/12/27 08:11:40;;;;;;;6.75;3.40;;;0.00;99.90;;;;;;5061137;28;20037;-68
2020/12/27 08:14:11;;;;;;;5.47;3.30;;;0.00;99.90;;;;;;5055250;28;20048;-67
2020/12/27 08:16:37;;;;;;;5.25;3.30;;;0.10;99.90;;;;;;5054463;28;20052;-66
2020/12/27 08:19:11;;;;;;;7.47;4.70;;;0.00;99.90;;;;;;5052905;28;20733;-64
2020/12/27 08:21:38;;;;;;;20.23;4.53;;;0.00;99.90;;;;;;5055412;28;20040;-66
2020/12/27 08:24:06;;;;;;;8.98;4.30;;;-0.10;99.90;;;;;;5059614;28;20051;-64
2020/12/27 08:26:37;;;;;;;6.03;3.90;;;-0.20;99.90;;;;;;5059123;28;20085;-63
2020/12/27 08:29:23;;;;;;;5.40;3.55;;;-0.10;99.90;;;;;;5054763;28;20040;-65
2020/12/27 08:31:52;;;;;;;9.60;4.07;;;-0.10;99.90;;;;;;5055442;28;20061;-64
2020/12/27 08:34:25;;;;;;;6.15;3.58;;;-0.10;99.90;;;;;;5058571;28;20048;-64
2020/12/27 08:36:53;;;;;;;5.80;3.83;;;-0.10;99.90;;;;;;5057258;28;20045;-64
2020/12/27 08:39:40;;;;;;;4.82;3.35;;;-0.20;99.90;;;;;;5058254;28;20032;-64
2020/12/27 08:42:35;;;;;;;6.65;4.05;;;-0.10;99.90;;;;;;5065382;28;20416;-65
2020/12/27 08:45:19;;;;;;;5.70;4.18;;;-0.10;99.90;;;;;;5058033;28;20535;-64
2020/12/27 08:48:05;;;;;;;9.48;5.15;;;-0.10;99.90;;;;;;5055020;28;20037;-64
2020/12/27 08:50:54;;;;;;;10.30;5.15;;;-0.20;99.90;;;;;;5055073;28;20075;-64
2020/12/27 08:53:20;;;;;;;7.65;4.88;;;-0.20;99.90;;;;;;5055240;28;20388;-64
2020/12/27 08:55:46;;;;;;;10.15;5.10;;;-0.20;99.90;;;;;;5055024;28;20037;-64
2020/12/27 08:58:11;;;;;;;11.45;5.60;;;-0.30;99.90;;;;;;5054719;28;20072;-65
2020/12/27 09:00:37;;;;;;;8.02;4.80;;;-0.30;99.90;;;;;;5058307;28;20510;-65
2020/12/27 09:03:04;;;;;;;9.38;5.40;;;-0.30;99.90;;;;;;5057450;28;20048;-63
2020/12/27 09:05:31;;;;;;;8.00;4.47;;;-0.30;99.90;;;;;;5048414;28;20180;-65
2020/12/27 09:07:57;;;;;;;7.03;4.35;;;;;;;;;;5054602;28;20072;-64
2020/12/27 09:10:24;;;;;;;6.63;4.47;;;;;;;;;;5058835;28;20144;-64
2020/12/27 09:13:02;;;;;;;9.50;4.90;;;;;;;;;;5057001;28;20124;-63
2020/12/27 09:15:28;;;;;;;7.70;4.82;;;;;;;;;;5053755;28;20095;-65
2020/12/27 09:17:55;;;;;;;8.55;4.68;;;;;;;;;;5057874;28;20045;-63
2020/12/27 09:20:22;;;;;;;11.45;4.88;;;;;;;;;;5057825;28;20033;-65
2020/12/27 09:22:49;;;;;;;10.82;4.93;;;;;;;;;;5055192;28;20598;-65
2020/12/27 09:25:16;;;;;;;10.23;4.97;;;;;;;;;;5054975;28;20037;-65
2020/12/27 09:27:42;;;;;;;8.57;4.90;;;;;;;;;;5052028;28;21093;-65
2020/12/27 09:30:08;;;;;;;8.23;5.20;;;;;;;;;;5061632;28;20760;-66
2020/12/27 09:32:35;;;;;;;8.20;4.95;;;;;;;;;;5056973;28;20037;-65
2020/12/27 09:35:01;;;;;;;10.45;5.18;;;;;;;;;;5054511;28;20467;-65
2020/12/27 09:37:32;;;;;;;8.00;4.90;;;;;;;;;;5060549;28;20090;-65
2020/12/27 09:39:58;;;;;;;7.93;5.20;;;;;;;;;;5054524;28;20117;-65
2020/12/27 09:42:25;;;;;;;9.52;5.43;;;;;;;;;;5061966;28;20036;-65
2020/12/27 09:44:52;;;;;;;8.85;5.10;;;;;;;;;;5057717;28;20068;-64
2020/12/27 09:47:26;;;;;;;9.60;5.03;;;;;;;;;;5054955;28;20070;-65
2020/12/27 09:49:58;;;;;;;10.18;5.53;;;;;;;;;;5055872;28;20036;-65
2020/12/27 09:52:24;;;;;;;16.10;6.10;;;;;;;;;;5052880;28;20725;-64
2020/12/27 09:54:50;;;;;;;10.13;5.90;;;;;;;;;;5052483;28;20041;-64
2020/12/27 09:57:27;;;;;;;11.60;6.28;;;;;;;;;;5054605;28;20636;-66
2020/12/27 09:59:53;;;;;;;13.23;6.18;;;;;;;;;;5055909;28;20051;-63
2020/12/27 10:02:24;;;;;;;11.60;5.80;;;;;;;;;;5061784;28;20080;-63
2020/12/27 10:04:50;;;;;;;11.93;6.10;;;;;;;;;;5060094;28;20408;-64
2020/12/27 10:07:16;;;;;;;10.93;5.90;;;;;;;;;;5064741;28;20037;-65
2020/12/27 10:09:42;;;;;;;10.52;5.30;;;;;;;;;;5053304;28;20075;-64
2020/12/27 10:12:08;;;;;;;8.50;5.30;;;;;;;;;;5056795;28;20542;-64
2020/12/27 10:14:35;;;;;;;8.15;5.15;;;;;;;;;;5065863;28;20045;-64
2020/12/27 10:17:02;;;;;;;7.38;4.95;;;;;;;;;;5052264;28;20097;-64
2020/12/27 10:19:28;;;;;;;7.25;4.28;;;;;;;;;;5054528;28;20067;-66
2020/12/27 10:21:54;;;;;;;6.93;5.00;;;;;;;;;;5049055;28;20040;-65
2020/12/27 10:24:23;;;;;;;8.63;5.22;;;;;;;;;;5057461;28;20044;-64
2020/12/27 10:26:49;;;;;;;8.00;4.03;;;;;;;;;;5065304;28;20105;-62
2020/12/27 10:29:16;;;;;;;8.05;4.07;;;;;;;;;;5066188;28;20405;-65
2020/12/27 10:31:42;;;;;;;6.15;3.83;;;;;;;;;;5063217;28;20044;-63
2020/12/27 10:34:08;;;;;;;7.07;4.30;;;;;;;;;;5054638;28;20120;-65
2020/12/27 10:36:34;;;;;;;13.85;5.35;;;;;;;;;;5045038;28;20094;-62
2020/12/27 10:39:00;;;;;;;8.70;4.68;;;;;;;;;;5063502;28;20059;-65
2020/12/27 10:41:26;;;;;;;7.63;4.55;;;;;;;;;;5057209;28;20024;-65
2020/12/27 10:43:52;;;;;;;6.93;4.55;;;;;;;;;;5054912;28;20043;-63
2020/12/27 10:46:18;;;;;;;18.40;4.32;;;;;;;;;;5044583;28;20484;-63
2020/12/27 10:48:44;;;;;;;6.40;4.28;;;;;;;;;;5044183;28;20049;-62
2020/12/27 10:51:11;;;;;;;8.85;4.50;;;;;;;;;;5046502;28;20085;-65
2020/12/27 10:53:37;;;;;;;10.20;4.80;;;;;;;;;;5064522;28;20036;-67
2020/12/27 10:56:03;;;;;;;13.18;4.43;;;;;;;;;;5063197;28;20515;-63
2020/12/27 10:58:29;;;;;;;7.80;4.20;;;;;;;;;;5059934;28;20033;-64
2020/12/27 11:00:55;;;;;;;10.25;6.25;;;;;;;;;;5051409;28;20064;-64
2020/12/27 11:03:21;;;;;;;7.22;4.07;;;;;;;;;;5053534;28;20080;-64
2020/12/27 11:05:47;;;;;;;6.20;3.97;;;;;;;;;;5050135;28;20068;-64
2020/12/27 11:08:13;;;;;;;9.00;3.78;;;;;;;;;;5055852;28;20033;-64
2020/12/27 11:10:43;;;;;;;9.73;5.68;;;;;;;;;;5054844;28;20041;-64
2020/12/27 11:13:09;;;;;;;8.93;5.30;;;;;;;;;;5048600;28;20041;-65
2020/12/27 11:15:35;;;;;;;6.80;3.83;;;;;;;;;;5059802;28;20044;-64
2020/12/27 11:18:01;;;;;;;6.43;3.88;;;;;;;;;;5063902;28;20062;-63
2020/12/27 11:20:28;;;;;;;5.10;3.10;;;;;;;;;;5053690;28;20045;-63
2020/12/27 11:22:56;;;;;;;5.43;3.47;;;;;;;;;;5045450;28;20471;-64
2020/12/27 11:25:23;;;;;;;3.50;2.65;;;;;;;;;;5059630;22;20500;-65
2020/12/27 11:27:51;;;;;;;8.75;5.65;;;;;;;;;;5031989;22;20864;-63
2020/12/27 11:30:20;;;;;;;8.63;5.65;;;;;;;;;;5078851;22;20055;-67
2020/12/27 11:32:46;;;;;;;9.38;4.03;;;;;;;;;;5077283;28;20118;-66
2020/12/27 11:35:13;;;;;;;6.70;3.97;;;;;;;;;;5063761;28;20108;-66
2020/12/27 11:37:39;;;;;;;7.68;3.50;;;;;;;;;;5076220;28;20040;-66
2020/12/27 11:40:05;;;;;;;6.45;3.90;;;;;;;;;;5080701;28;20028;-64
2020/12/27 11:42:31;;;;;;;9.77;6.35;;;;;;;;;;5066185;28;20043;-67
2020/12/27 11:44:57;;;;;;;9.00;5.50;;;;;;;;;;5073420;28;20047;-65
2020/12/27 11:47:23;;;;;;;6.03;3.83;;;;;;;;;;5080472;28;20560;-64
2020/12/27 11:49:49;;;;;;;6.00;3.60;;;;;;;;;;5067658;28;20480;-65
2020/12/27 11:52:15;;;;;;;7.68;4.25;;;;;;;;;;5063945;28;20046;-64
2020/12/27 11:54:41;;;;;;;6.70;4.20;;;;;;;;;;5069590;28;20036;-65
2020/12/27 11:57:07;;;;;;;5.28;3.63;;;;;;;;;;5083065;28;20455;-64
2020/12/27 11:59:33;;;;;;;7.22;3.85;;;;;;;;;;5070931;28;20045;-65
2020/12/27 12:01:59;;;;;;;4.93;3.20;;;;;;;;;;5063152;28;20037;-64
2020/12/27 12:04:26;;;;;;;5.40;3.22;;;;;;;;;;5081712;28;20112;-63
2020/12/27 12:06:52;;;;;;;6.05;3.90;;;;;;;;;;5084638;28;20032;-62
2020/12/27 12:09:18;;;;;;;6.35;4.05;;;;;;;;;;5073311;28;20562;-61
2020/12/27 12:11:44;;;;;;;7.13;4.30;;;;;;;;;;5086236;28;20032;-63
2020/12/27 12:14:10;;;;;;;6.90;3.95;;;;;;;;;;5083086;28;20028;-62
2020/12/27 12:16:36;;;;;;;10.05;4.30;;;;;;;;;;5083788;28;20032;-63
2020/12/27 12:19:03;;;;;;;5.28;3.28;;;;;;;;;;5086183;28;20153;-62
2020/12/27 12:21:29;;;;;;;6.32;3.92;;;;;;;;;;5086212;28;20111;-62
2020/12/27 12:23:55;;;;;;;7.13;3.42;;;;;;;;;;5087094;28;20046;-63
2020/12/27 12:26:23;;;;;;;7.40;3.53;;;;;;;;;;5085060;28;20039;-63
2020/12/27 12:28:49;;;;;;;6.25;3.50;;;;;;;;;;5085013;28;20415;-62
2020/12/27 12:31:15;;;;;;;5.85;3.08;;;;;;;;;;5078518;28;20407;-63
2020/12/27 12:33:42;;;;;;;4.72;2.70;;;;;;;;;;5092764;28;20052;-62
2020/12/27 12:36:11;;;;;;;14.57;8.55;;;;;;;;;;5086945;28;20546;-62
2020/12/27 12:38:37;;;;;;;4.82;2.95;;;;;;;;;;5083396;28;20691;-63
2020/12/27 12:41:04;;;;;;;4.38;2.80;;;;;;;;;;5084527;28;20032;-63
2020/12/27 12:43:31;;;;;;;5.03;3.28;;;;;;;;;;5085107;28;20119;-62
2020/12/27 12:46:00;;;;;;;5.15;3.08;;;;;;;;;;5084339;28;20131;-63
2020/12/27 12:48:26;;;;;;;4.32;2.60;;;;;;;;;;5086060;28;20044;-62
2020/12/27 12:50:52;;;;;;;3.10;2.30;;;;;;;;;;5086522;28;20038;-62
2020/12/27 12:53:18;;;;;;;4.00;2.33;;;;;;;;;;5082894;28;20052;-62
2020/12/27 12:55:44;;;;;;;2.83;1.98;;;;;;;;;;5085666;28;20052;-63
2020/12/27 12:58:10;;;;;;;3.67;2.20;;;;;;;;;;5084302;28;20036;-62
2020/12/27 13:00:36;;;;;;;3.53;2.10;;;;;;;;;;5082338;28;20055;-63
2020/12/27 13:03:03;;;;;;;4.15;2.00;;;;;;;;;;5083612;28;20040;-63
2020/12/27 13:05:29;;;;;;;5.88;3.60;;;;;;;;;;5086982;28;20044;-63
2020/12/27 13:07:55;;;;;;;6.80;3.90;;;;;;;;;;5086083;28;20054;-62
2020/12/27 13:10:21;;;;;;;3.72;2.20;;;;;;;;;;5085597;28;20488;-63
2020/12/27 13:12:47;;;;;;;3.60;2.50;;;;;;;;;;5083971;28;20061;-64
2020/12/27 13:15:13;;;;;;;3.05;1.92;;;;;;;;;;5082843;28;20680;-63
2020/12/27 13:17:39;;;;;;;2.40;1.80;;;;;;;;;;5084901;28;20036;-64
2020/12/27 13:20:05;;;;;;;3.13;2.00;;;;;;;;;;5085517;28;20058;-63
2020/12/27 13:22:31;;;;;;;4.80;2.20;;;;;;;;;;5086026;28;20040;-63
2020/12/27 13:24:57;;;;;;;3.28;1.88;;;;;;;;;;5085924;28;20036;-64
2020/12/27 13:27:23;;;;;;;3.20;1.90;;;;;;;;;;5080915;28;20044;-64
2020/12/27 13:29:49;;;;;;;2.42;1.77;;;;;;;;;;5084688;28;20091;-63